Time;durP1;ratioP1;P1;durP2;ratioP2;P2;SDS_P1;SDS_P2;PMS_P1;PMS_P2;Temp;Humidity;BMP_temperature;BMP_pressure;BME280_temperature;BME280_humidity;BME280_pressure;Samples;Min_cycle;Max_cycle;Signal;HPM_P1;HPM_P2
2023/03/04 00:00:52;;;;;;;32.03;18.57;;;;;;;0.36;79.72;96036.03;5029541;28;20186;-79
2023/03/04 00:03:17;;;;;;;29.33;17.60;;;;;;;0.34;79.72;96040.34;5031506;28;20621;-80
2023/03/04 00:05:42;;;;;;;35.83;18.20;;;;;;;0.29;79.93;96038.03;5024648;28;20207;-80
2023/03/04 00:08:08;;;;;;;33.30;18.43;;;;;;;0.30;79.91;96041.44;5002960;28;20198;-80
2023/03/04 00:10:33;;;;;;;29.60;16.90;;;;;;;0.28;79.97;96039.78;4999312;28;20194;-79
2023/03/04 00:12:58;;;;;;;34.03;17.87;;;;;;;0.26;79.88;96038.16;5003502;28;20186;-79
2023/03/04 00:15:23;;;;;;;30.03;17.43;;;;;;;0.24;79.86;96039.97;5026763;28;20660;-79
2023/03/04 00:17:49;;;;;;;29.87;17.73;;;;;;;0.17;79.99;96036.06;5033089;28;20278;-79
2023/03/04 00:20:14;;;;;;;32.03;17.27;;;;;;;0.17;79.92;96036.88;5031292;28;20194;-80
2023/03/04 00:22:39;;;;;;;31.47;18.40;;;;;;;0.17;80.04;96036.06;5025800;28;20233;-78
2023/03/04 00:25:05;;;;;;;30.90;17.80;;;;;;;0.15;79.91;96032.75;5003241;28;20265;-79
2023/03/04 00:27:31;;;;;;;32.47;17.90;;;;;;;0.11;80.07;96037.19;4999383;28;20556;-77
2023/03/04 00:29:56;;;;;;;30.63;18.03;;;;;;;0.09;79.77;96031.34;5018935;28;20214;-78
2023/03/04 00:32:21;;;;;;;29.30;17.37;;;;;;;0.05;79.94;96037.47;5009154;28;20201;-79
2023/03/04 00:34:47;;;;;;;33.10;17.60;;;;;;;0.03;80.06;96038.44;5013505;28;20323;-79
2023/03/04 00:37:12;;;;;;;32.13;17.97;;;;;;;0.00;80.10;96034.31;5014347;28;20198;-79
2023/03/04 00:39:37;;;;;;;33.97;18.43;;;;;;;-0.02;80.01;96033.53;5008928;28;20240;-78
2023/03/04 00:42:03;;;;;;;33.93;17.70;;;;;;;-0.04;80.23;96037.91;5018828;28;20218;-79
2023/03/04 00:44:28;;;;;;;35.30;19.07;;;;;;;-0.05;79.93;96038.81;5038026;28;20233;-79
2023/03/04 00:46:53;;;;;;;35.00;17.13;;;;;;;-0.06;80.28;96037.16;5021088;28;20682;-80
2023/03/04 00:49:18;;;;;;;31.33;18.20;;;;;;;-0.10;80.56;96036.44;5008397;28;20223;-80
2023/03/04 00:51:44;;;;;;;34.13;18.87;;;;;;;-0.09;80.53;96030.47;5030536;28;20199;-79
2023/03/04 00:54:09;;;;;;;33.30;17.17;;;;;;;-0.11;80.56;96028.88;5031532;28;20218;-80
2023/03/04 00:56:34;;;;;;;31.80;18.07;;;;;;;-0.14;80.44;96034.13;5024832;28;20214;-80
2023/03/04 00:59:00;;;;;;;32.17;17.23;;;;;;;-0.15;80.78;96032.47;5011596;28;20183;-80
2023/03/04 01:01:25;;;;;;;30.47;18.17;;;;;;;-0.15;80.57;96022.25;5020145;28;20183;-80
2023/03/04 01:03:50;;;;;;;30.90;18.67;;;;;;;-0.16;80.75;96026.53;5020072;28;20190;-79
2023/03/04 01:06:16;;;;;;;35.53;19.07;;;;;;;-0.17;80.39;96021.50;5040077;28;20215;-79
2023/03/04 01:08:41;;;;;;;39.03;20.80;;;;;;;-0.20;80.77;96021.63;5030601;28;20221;-80
2023/03/04 01:11:07;;;;;;;34.17;19.43;;;;;;;-0.20;80.71;96024.19;5017501;28;20187;-80
2023/03/04 01:13:32;;;;;;;34.23;18.27;;;;;;;-0.25;81.02;96026.13;5025316;28;20628;-81
2023/03/04 01:15:57;;;;;;;33.03;18.70;;;;;;;-0.21;81.51;96025.09;5033496;28;20644;-80
2023/03/04 01:18:23;;;;;;;34.53;19.07;;;;;;;-0.25;81.49;96023.59;5032037;28;20193;-81
2023/03/04 01:20:48;;;;;;;33.63;20.27;;;;;;;-0.26;81.25;96022.75;5014106;28;20190;-81
2023/03/04 01:23:14;;;;;;;31.97;18.80;;;;;;;-0.28;81.35;96027.09;5029583;28;20201;-80
2023/03/04 01:25:39;;;;;;;36.37;19.77;;;;;;;-0.34;81.36;96023.09;5032848;28;20686;-81
2023/03/04 01:28:04;;;;;;;34.30;19.63;;;;;;;-0.37;82.05;96020.69;5032390;28;20559;-80
2023/03/04 01:30:30;;;;;;;34.37;20.27;;;;;;;-0.41;81.70;96023.44;5027916;28;20642;-80
2023/03/04 01:32:56;;;;;;;31.80;18.73;;;;;;;-0.43;81.99;96020.97;5023075;28;20186;-81
2023/03/04 01:35:21;;;;;;;30.23;18.03;;;;;;;-0.44;81.98;96029.53;5033620;28;20224;-80
2023/03/04 01:37:47;;;;;;;33.23;18.07;;;;;;;-0.46;82.37;96022.81;5033038;28;20685;-79
2023/03/04 01:40:12;;;;;;;33.73;19.43;;;;;;;-0.48;82.36;96019.53;5019481;28;20218;-81
2023/03/04 01:42:38;;;;;;;35.67;18.97;;;;;;;-0.57;82.93;96019.03;5025669;28;20218;-81
2023/03/04 01:45:04;;;;;;;30.90;18.20;;;;;;;-0.54;83.01;96015.50;5006163;28;20216;-82
2023/03/04 01:47:30;;;;;;;32.57;18.10;;;;;;;-0.54;83.21;96009.56;5012019;28;20673;-81
2023/03/04 01:49:57;;;;;;;30.83;17.70;;;;;;;-0.59;83.27;96010.63;5034080;28;20218;-81
2023/03/04 01:52:22;;;;;;;35.00;18.33;;;;;;;-0.61;83.20;96007.31;5038975;28;20613;-82
2023/03/04 01:54:48;;;;;;;28.60;17.70;;;;;;;-0.63;84.30;96008.25;5035498;28;20226;-80
2023/03/04 01:57:21;;;;;;;32.57;17.70;;;;;;;-0.61;83.63;96007.31;5012518;28;20685;-81
2023/03/04 01:59:47;;;;;;;30.90;18.17;;;;;;;-0.64;84.57;96007.44;5019149;28;20341;-80
2023/03/04 02:02:13;;;;;;;32.97;18.67;;;;;;;-0.64;85.07;96016.81;5036794;28;20308;-82
2023/03/04 02:04:40;;;;;;;33.40;17.10;;;;;;;-0.59;84.64;96009.81;5031316;28;20265;-81
2023/03/04 02:07:05;;;;;;;33.17;17.97;;;;;;;-0.62;84.91;96000.56;5009352;28;20237;-80
2023/03/04 02:09:32;;;;;;;29.07;17.10;;;;;;;-0.55;84.89;96005.38;5021663;28;20210;-79
2023/03/04 02:11:57;;;;;;;29.43;17.50;;;;;;;-0.61;84.41;96002.22;5007821;28;20192;-79
2023/03/04 02:14:23;;;;;;;33.13;18.33;;;;;;;-0.62;84.62;95999.72;5014646;28;20210;-81
2023/03/04 02:16:49;;;;;;;31.37;17.57;;;;;;;-0.64;84.66;95991.31;5019446;28;20194;-81
2023/03/04 02:19:34;;;;;;;34.93;18.30;;;;;;;-0.66;84.48;95993.94;5040128;28;20186;-81
2023/03/04 02:22:00;;;;;;;30.33;18.23;;;;;;;-0.68;84.79;95984.72;5033891;28;20213;-80
2023/03/04 02:24:34;;;;;;;33.13;19.27;;;;;;;-0.73;84.81;95986.63;5009668;28;20561;-79
2023/03/04 02:26:59;;;;;;;34.10;18.53;;;;;;;-0.74;84.80;95984.97;5035317;28;20179;-80
2023/03/04 02:29:25;;;;;;;30.50;18.43;;;;;;;-0.74;85.03;95979.88;5033271;28;20556;-80
2023/03/04 02:31:52;;;;;;;31.90;18.23;;;;;;;-0.74;85.08;95980.69;5028907;28;20180;-80
2023/03/04 02:34:30;;;;;;;34.27;18.50;;;;;;;-0.74;85.10;95983.25;5015501;28;20221;-79
2023/03/04 02:36:55;;;;;;;29.03;17.80;;;;;;;-0.81;85.43;95983.59;5034438;28;20678;-79
2023/03/04 02:39:34;;;;;;;35.63;20.13;;;;;;;-0.87;86.36;95988.09;5030015;28;20245;-79
2023/03/04 02:42:00;;;;;;;33.17;19.47;;;;;;;-0.92;86.46;95986.63;5034028;28;20178;-81
2023/03/04 02:44:37;;;;;;;34.50;18.83;;;;;;;-0.90;86.75;95992.47;5021311;28;20761;-80
2023/03/04 02:47:04;;;;;;;34.70;19.07;;;;;;;-0.96;87.18;95985.94;5031634;28;20190;-79
2023/03/04 02:49:31;;;;;;;33.23;18.30;;;;;;;-0.96;87.05;95985.94;5038738;28;20182;-79
2023/03/04 02:52:15;;;;;;;37.93;18.57;;;;;;;-0.98;86.77;95982.59;5004990;28;20667;-80
2023/03/04 02:54:41;;;;;;;31.17;19.70;;;;;;;-0.99;86.97;95983.50;5019435;28;20312;-80
2023/03/04 02:57:09;;;;;;;36.43;18.87;;;;;;;-1.01;86.93;95987.84;5012593;28;20236;-79
2023/03/04 02:59:36;;;;;;;32.53;20.27;;;;;;;-1.03;86.97;95982.00;5007505;28;20217;-80
2023/03/04 03:02:01;;;;;;;37.00;19.17;;;;;;;-1.06;87.36;95984.69;5021918;28;20620;-80
2023/03/04 03:04:27;;;;;;;36.50;20.37;;;;;;;-1.08;87.02;95983.91;5027476;28;20191;-79
2023/03/04 03:06:52;;;;;;;38.07;19.40;;;;;;;-1.08;87.00;95980.53;5032494;28;20194;-80
2023/03/04 03:09:18;;;;;;;35.10;19.30;;;;;;;-1.12;87.07;95987.50;5037195;28;20197;-78
2023/03/04 03:11:43;;;;;;;37.30;19.57;;;;;;;-1.12;87.36;95982.41;5035421;28;20193;-81
2023/03/04 03:14:08;;;;;;;38.90;20.33;;;;;;;-1.11;87.06;95983.22;5029628;28;20221;-79
2023/03/04 03:16:34;;;;;;;35.40;19.93;;;;;;;-1.14;87.63;95986.75;5007072;28;20214;-79
2023/03/04 03:18:59;;;;;;;37.57;19.63;;;;;;;-1.12;87.72;95981.56;5021792;28;20198;-80
2023/03/04 03:21:25;;;;;;;38.77;19.40;;;;;;;-1.09;87.79;95986.53;5029157;28;20526;-80
2023/03/04 03:23:50;;;;;;;34.37;20.00;;;;;;;-1.13;88.00;95982.47;5010178;28;20187;-79
2023/03/04 03:26:16;;;;;;;35.53;19.80;;;;;;;-1.12;87.63;95986.66;5004962;28;20215;-79
2023/03/04 03:28:41;;;;;;;33.83;18.93;;;;;;;-1.18;88.03;95982.66;5007863;28;20834;-80
2023/03/04 03:31:06;;;;;;;38.20;20.63;;;;;;;-1.20;87.76;95981.91;5013725;28;20224;-79
2023/03/04 03:33:31;;;;;;;37.87;20.93;;;;;;;-1.27;87.93;95972.84;5019619;28;20235;-80
2023/03/04 03:35:57;;;;;;;39.23;20.93;;;;;;;-1.32;87.86;95978.16;5022502;28;20319;-79
2023/03/04 03:38:22;;;;;;;36.53;20.17;;;;;;;-1.38;88.31;95975.88;5020470;28;20736;-80
2023/03/04 03:40:48;;;;;;;34.53;19.63;;;;;;;-1.40;88.92;95969.19;5031465;28;20197;-79
2023/03/04 03:43:13;;;;;;;36.87;20.77;;;;;;;-1.44;89.12;95971.84;5008844;28;20212;-79
2023/03/04 03:45:38;;;;;;;38.13;20.10;;;;;;;-1.44;89.11;95968.47;5012325;28;20210;-78
2023/03/04 03:48:04;;;;;;;35.90;19.33;;;;;;;-1.45;89.27;95964.28;5033584;28;20194;-79
2023/03/04 03:50:29;;;;;;;38.87;21.33;;;;;;;-1.46;90.00;95970.25;5022644;28;20200;-79
2023/03/04 03:52:54;;;;;;;46.07;21.27;;;;;;;-1.48;89.96;95960.16;5025117;28;20229;-79
2023/03/04 03:55:20;;;;;;;35.93;19.97;;;;;;;-1.53;90.43;95969.69;5035885;28;20217;-79
2023/03/04 03:57:46;;;;;;;41.00;21.23;;;;;;;-1.54;89.96;95965.50;5015030;28;20284;-80
2023/03/04 04:00:11;;;;;;;41.37;21.03;;;;;;;-1.56;90.36;95969.81;5009512;28;20205;-78
2023/03/04 04:02:37;;;;;;;36.20;18.60;;;;;;;-1.60;89.82;95970.81;5027597;28;20202;-78
2023/03/04 04:05:02;;;;;;;38.67;19.97;;;;;;;-1.57;90.09;95967.34;5033120;28;20325;-79
2023/03/04 04:07:28;;;;;;;31.47;18.03;;;;;;;-1.55;89.81;95963.00;5039135;28;20648;-79
2023/03/04 04:09:53;;;;;;;34.63;18.50;;;;;;;-1.57;89.87;95963.09;5043621;28;20194;-80
2023/03/04 04:12:19;;;;;;;37.27;18.90;;;;;;;-1.55;89.73;95970.66;5021198;28;20189;-78
2023/03/04 04:14:44;;;;;;;35.87;20.00;;;;;;;-1.58;89.28;95969.06;5035722;28;20208;-79
2023/03/04 04:17:10;;;;;;;32.17;19.03;;;;;;;-1.57;89.68;95968.16;5042777;28;20284;-79
2023/03/04 04:19:35;;;;;;;31.73;19.00;;;;;;;-1.59;89.35;95969.09;5043904;28;20209;-79
2023/03/04 04:22:02;;;;;;;34.53;19.10;;;;;;;-1.64;89.96;95965.94;5037438;28;20871;-78
2023/03/04 04:24:28;;;;;;;34.40;18.30;;;;;;;-1.61;89.83;95964.09;5039936;28;20182;-79
2023/03/04 04:26:53;;;;;;;32.50;19.10;;;;;;;-1.60;89.25;95965.72;5044088;28;20189;-79
2023/03/04 04:29:18;;;;;;;32.17;19.27;;;;;;;-1.62;88.99;95961.59;5021019;28;20191;-78
2023/03/04 04:31:44;;;;;;;32.70;17.83;;;;;;;-1.65;88.93;95960.03;5033790;28;20190;-79
2023/03/04 04:34:09;;;;;;;34.33;17.40;;;;;;;-1.71;89.23;95963.63;5027909;28;20215;-79
2023/03/04 04:36:34;;;;;;;32.83;16.13;;;;;;;-1.69;89.22;95970.38;5028848;28;20224;-78
2023/03/04 04:38:59;;;;;;;34.47;18.43;;;;;;;-1.70;90.09;95972.09;5043503;28;20190;-79
2023/03/04 04:41:27;;;;;;;36.97;19.83;;;;;;;-1.71;90.21;95976.38;5023351;28;20202;-78
2023/03/04 04:43:53;;;;;;;36.53;19.83;;;;;;;-1.73;90.37;95977.34;5027273;28;20226;-79
2023/03/04 04:46:19;;;;;;;37.67;20.60;;;;;;;-1.69;90.68;95989.03;5037990;28;20233;-78
2023/03/04 04:48:45;;;;;;;37.70;20.53;;;;;;;-1.73;90.03;95978.16;5032822;28;20236;-78
2023/03/04 04:51:11;;;;;;;38.13;20.27;;;;;;;-1.76;90.02;95980.00;5027721;28;20224;-78
2023/03/04 04:53:36;;;;;;;40.60;20.77;;;;;;;-1.83;90.40;95981.97;5028924;28;20214;-79
2023/03/04 04:56:13;;;;;;;38.77;19.87;;;;;;;-1.83;90.34;95981.16;5017144;28;20219;-78
2023/03/04 04:58:39;;;;;;;39.13;21.13;;;;;;;-1.89;90.55;95981.38;5024098;28;20654;-78
2023/03/04 05:01:04;;;;;;;39.80;21.90;;;;;;;-1.95;90.39;95977.34;5026856;28;20216;-78
2023/03/04 05:03:32;;;;;;;36.67;20.27;;;;;;;-1.98;90.51;95981.75;5038491;28;20179;-79
2023/03/04 05:05:57;;;;;;;37.50;19.57;;;;;;;-1.98;90.45;95976.66;5019236;28;20197;-78
2023/03/04 05:08:22;;;;;;;37.33;21.40;;;;;;;-1.97;90.49;95976.59;5037023;28;20217;-78
2023/03/04 05:10:47;;;;;;;39.47;20.27;;;;;;;-1.97;90.75;95980.88;5022466;28;20179;-78
2023/03/04 05:13:13;;;;;;;42.07;21.50;;;;;;;-1.97;91.14;95975.78;5027473;28;20296;-78
2023/03/04 05:15:38;;;;;;;41.10;21.20;;;;;;;-1.99;91.00;95980.94;5031224;28;20242;-78
2023/03/04 05:18:03;;;;;;;40.10;21.40;;;;;;;-1.96;90.50;95975.72;5037148;28;20197;-77
2023/03/04 05:20:29;;;;;;;41.83;21.73;;;;;;;-1.94;90.94;95985.81;5043870;28;20264;-77
2023/03/04 05:22:54;;;;;;;39.93;21.20;;;;;;;-2.01;90.08;95978.44;5018817;28;20241;-78
2023/03/04 05:25:19;;;;;;;39.33;21.43;;;;;;;-2.06;90.38;95980.34;5013007;28;20229;-79
2023/03/04 05:27:45;;;;;;;42.03;20.87;;;;;;;-2.06;90.86;95984.59;5030861;28;20196;-79
2023/03/04 05:30:11;;;;;;;38.97;20.90;;;;;;;-2.06;90.82;95979.50;5036021;28;20187;-77
2023/03/04 05:32:36;;;;;;;48.90;27.47;;;;;;;-2.06;91.07;95979.50;5024656;28;20186;-79
2023/03/04 05:35:01;;;;;;;47.43;24.07;;;;;;;-2.03;91.94;95980.25;5027947;28;20258;-77
2023/03/04 05:37:27;;;;;;;41.30;22.27;;;;;;;-2.03;91.25;95980.25;5041815;28;20186;-79
2023/03/04 05:39:52;;;;;;;43.07;23.73;;;;;;;-2.02;92.03;95989.53;5018704;28;20213;-79
2023/03/04 05:42:17;;;;;;;41.77;23.53;;;;;;;-2.02;91.78;95981.88;5029002;28;20260;-78
2023/03/04 05:44:43;;;;;;;39.20;22.30;;;;;;;-1.99;91.53;95991.13;5020214;28;20201;-78
2023/03/04 05:47:08;;;;;;;42.37;21.43;;;;;;;-2.02;91.92;95989.53;5039640;28;20762;-79
2023/03/04 05:49:33;;;;;;;39.73;21.90;;;;;;;-1.99;91.74;95991.13;5015319;28;20187;-78
2023/03/04 05:51:59;;;;;;;40.30;21.60;;;;;;;-2.01;91.78;95988.63;5015988;28;20185;-76
2023/03/04 05:54:24;;;;;;;36.53;20.20;;;;;;;-2.03;91.90;95985.31;5012320;28;20559;-78
2023/03/04 05:56:49;;;;;;;37.37;20.03;;;;;;;-2.02;91.87;95986.97;5018041;28;20201;-77
2023/03/04 05:59:19;;;;;;;40.10;20.90;;;;;;;-2.02;91.95;95986.97;5026002;28;20197;-78
2023/03/04 06:01:44;;;;;;;39.60;21.20;;;;;;;-2.04;92.68;95998.09;5041496;28;20183;-77
2023/03/04 06:04:10;;;;;;;46.77;22.67;;;;;;;-1.96;92.13;95997.78;5018428;28;20182;-77
2023/03/04 06:06:35;;;;;;;41.13;21.87;;;;;;;-1.90;91.94;96000.94;5028166;28;20205;-77
2023/03/04 06:09:00;;;;;;;43.80;22.17;;;;;;;-1.96;92.37;96006.25;5025854;28;20180;-76
2023/03/04 06:11:26;;;;;;;49.37;23.17;;;;;;;-1.89;92.11;96004.28;5016308;28;20200;-78
2023/03/04 06:13:51;;;;;;;39.30;21.73;;;;;;;-1.88;91.62;96008.50;5032530;28;20188;-78
2023/03/04 06:16:16;;;;;;;44.97;22.70;;;;;;;-1.86;92.27;96009.25;5009584;28;20234;-78
2023/03/04 06:18:42;;;;;;;45.87;24.47;;;;;;;-1.92;93.15;96017.16;5041527;28;20191;-79
2023/03/04 06:21:07;;;;;;;44.40;24.87;;;;;;;-1.75;92.43;96013.03;5039903;28;20210;-77
2023/03/04 06:23:32;;;;;;;49.03;23.37;;;;;;;-1.73;92.74;96023.16;5019707;28;20198;-78
2023/03/04 06:25:59;;;;;;;49.63;25.27;;;;;;;-1.74;92.85;96034.25;5022423;28;20195;-77
2023/03/04 06:28:24;;;;;;;50.17;24.73;;;;;;;-1.58;92.22;96026.81;5018442;28;20217;-77
2023/03/04 06:30:54;;;;;;;47.90;23.80;;;;;;;-1.47;92.32;96029.75;5037559;28;20486;-77
2023/03/04 06:33:20;;;;;;;50.00;25.03;;;;;;;-1.55;93.12;96027.50;5011755;28;20186;-77
2023/03/04 06:35:45;;;;;;;57.37;29.57;;;;;;;-1.38;92.80;96033.63;5003432;28;20220;-80
2023/03/04 06:38:10;;;;;;;53.73;26.83;;;;;;;-1.35;92.28;96025.84;5011064;28;20189;-81
2023/03/04 06:40:36;;;;;;;52.97;26.03;;;;;;;-1.18;92.12;96031.06;5011662;28;20189;-79
2023/03/04 06:43:01;;;;;;;52.50;25.03;;;;;;;-1.17;92.16;96032.72;5053767;28;20211;-80
2023/03/04 06:45:26;;;;;;;53.03;25.27;;;;;;;-1.20;92.55;96027.78;5028165;28;20555;-80
2023/03/04 06:47:52;;;;;;;74.50;27.00;;;;;;;-1.26;93.24;96028.84;5029451;28;20191;-80
2023/03/04 06:50:17;;;;;;;53.43;26.37;;;;;;;-1.02;93.15;96032.06;5016476;28;20190;-78
2023/03/04 06:52:42;;;;;;;61.50;29.17;;;;;;;-1.08;93.03;96037.44;5020708;28;20193;-80
2023/03/04 06:55:08;;;;;;;57.27;28.20;;;;;;;-0.96;93.04;96041.19;5022192;28;20213;-79
2023/03/04 06:57:34;;;;;;;56.10;27.93;;;;;;;-0.96;92.77;96044.56;5041288;28;20260;-79
2023/03/04 06:59:59;;;;;;;65.10;30.73;;;;;;;-0.95;93.13;96035.19;4998573;28;20255;-78
2023/03/04 07:02:24;;;;;;;61.23;28.73;;;;;;;-0.93;93.30;96041.88;5006407;28;20198;-79
2023/03/04 07:04:50;;;;;;;81.23;38.10;;;;;;;-0.75;92.97;96042.81;5028903;28;20237;-78
2023/03/04 07:07:15;;;;;;;62.40;25.13;;;;;;;-0.91;93.20;96055.38;5015754;28;20195;-79
2023/03/04 07:09:40;;;;;;;55.43;28.03;;;;;;;-0.71;93.20;96049.41;5033280;28;20196;-79
2023/03/04 07:12:06;;;;;;;53.80;26.40;;;;;;;-0.78;93.47;96049.78;5029027;28;20205;-79
2023/03/04 07:14:31;;;;;;;54.73;25.57;;;;;;;-0.64;93.42;96050.81;5006239;28;20210;-79
2023/03/04 07:16:56;;;;;;;50.70;26.37;;;;;;;-0.68;92.89;96053.56;5000701;28;20191;-79
2023/03/04 07:19:22;;;;;;;56.83;25.87;;;;;;;-0.61;92.54;96054.97;5005067;28;20186;-78
2023/03/04 07:21:47;;;;;;;46.43;24.57;;;;;;;-0.58;91.91;96062.47;5011936;28;20204;-79
2023/03/04 07:24:12;;;;;;;51.93;24.80;;;;;;;-0.64;92.40;96070.38;5034280;28;20182;-79
2023/03/04 07:26:38;;;;;;;45.17;23.97;;;;;;;-0.55;92.33;96062.31;5018992;28;20212;-77
2023/03/04 07:29:04;;;;;;;51.03;24.60;;;;;;;-0.73;92.62;96060.59;5011568;28;20179;-78
2023/03/04 07:31:31;;;;;;;53.73;26.07;;;;;;;-0.63;93.08;96066.94;5007615;28;20190;-78
2023/03/04 07:33:58;;;;;;;52.63;24.73;;;;;;;-0.46;92.57;96069.56;5035149;28;20243;-79
2023/03/04 07:36:24;;;;;;;51.60;25.13;;;;;;;-0.41;92.06;96072.75;5034806;28;20225;-79
2023/03/04 07:38:50;;;;;;;49.80;24.63;;;;;;;-0.44;91.80;96072.06;5010948;28;20198;-79
2023/03/04 07:41:16;;;;;;;52.10;25.67;;;;;;;-0.42;92.50;96072.84;5020728;28;20248;-78
2023/03/04 07:43:42;;;;;;;50.87;26.37;;;;;;;-0.30;92.09;96075.66;5015906;28;20209;-79
2023/03/04 07:46:08;;;;;;;54.07;25.70;;;;;;;-0.19;91.03;96082.00;5023810;28;20203;-78
2023/03/04 07:48:33;;;;;;;50.87;23.57;;;;;;;-0.35;90.11;96079.31;5024832;28;20260;-79
2023/03/04 07:51:07;;;;;;;43.60;22.13;;;;;;;-0.22;90.25;96089.81;5016875;28;20191;-79
2023/03/04 07:53:33;;;;;;;48.03;22.60;;;;;;;-0.28;89.28;96085.78;5004111;28;20251;-78
2023/03/04 07:55:58;;;;;;;39.90;22.53;;;;;;;-0.39;90.46;96091.38;5022210;28;20214;-78
2023/03/04 07:58:24;;;;;;;42.10;22.37;;;;;;;-0.39;90.73;96088.81;5020692;28;20201;-78
2023/03/04 08:00:49;;;;;;;40.17;22.30;;;;;;;-0.39;90.88;96088.81;5016652;28;20812;-80
2023/03/04 08:03:14;;;;;;;43.03;22.50;;;;;;;-0.18;89.56;96096.41;5008355;28;20204;-79
2023/03/04 08:05:40;;;;;;;45.00;23.73;;;;;;;-0.24;89.11;96097.53;5014227;28;20224;-79
2023/03/04 08:08:08;;;;;;;44.87;24.20;;;;;;;-0.16;89.42;96100.56;5035019;28;20205;-79
2023/03/04 08:10:33;;;;;;;42.17;21.37;;;;;;;0.01;89.45;96101.53;5033744;28;20194;-79
2023/03/04 08:12:58;;;;;;;45.97;23.57;;;;;;;0.01;89.01;96104.91;5028649;28;20674;-79
2023/03/04 08:15:26;;;;;;;48.03;23.30;;;;;;;0.07;88.86;96107.16;5004151;28;20229;-80
2023/03/04 08:17:51;;;;;;;40.23;22.57;;;;;;;0.33;88.30;96112.78;5016574;28;20190;-79
2023/03/04 08:20:16;;;;;;;36.00;20.70;;;;;;;0.10;87.29;96116.44;5005244;28;20183;-80
2023/03/04 08:22:42;;;;;;;38.37;22.07;;;;;;;0.10;87.46;96112.16;5029455;28;20368;-79
2023/03/04 08:25:07;;;;;;;36.97;21.87;;;;;;;0.16;86.95;96111.84;5019487;28;20765;-79
2023/03/04 08:27:33;;;;;;;43.27;23.30;;;;;;;0.06;87.16;96114.91;5029867;28;20195;-79
2023/03/04 08:29:58;;;;;;;40.10;22.27;;;;;;;0.18;86.59;96109.25;5009784;28;20213;-80
2023/03/04 08:32:23;;;;;;;41.63;23.47;;;;;;;0.32;85.98;96116.25;5023698;28;20196;-80
2023/03/04 08:34:49;;;;;;;39.20;24.13;;;;;;;0.23;84.60;96112.41;5000835;28;20245;-79
2023/03/04 08:37:14;;;;;;;38.83;22.40;;;;;;;0.29;85.00;96117.22;5007462;28;20218;-80
2023/03/04 08:39:39;;;;;;;40.73;22.67;;;;;;;0.39;84.40;96112.53;5030620;28;20191;-79
2023/03/04 08:42:04;;;;;;;48.40;25.87;;;;;;;0.36;84.65;96121.16;5014615;28;20226;-79
2023/03/04 08:44:30;;;;;;;43.23;24.13;;;;;;;0.52;84.49;96113.56;5017724;28;20668;-79
2023/03/04 08:46:55;;;;;;;46.63;27.70;;;;;;;0.60;84.21;96114.03;5007611;28;20190;-79
2023/03/04 08:49:20;;;;;;;48.17;27.83;;;;;;;0.68;83.41;96119.63;5004677;28;20372;-79
2023/03/04 08:51:46;;;;;;;41.47;24.60;;;;;;;0.69;82.80;96111.03;4998667;28;20237;-79
2023/03/04 08:54:11;;;;;;;43.20;24.40;;;;;;;0.53;82.94;96116.09;5019266;28;20569;-78
2023/03/04 08:56:36;;;;;;;42.80;24.73;;;;;;;0.37;83.11;96112.59;5024407;28;20240;-79
2023/03/04 08:59:02;;;;;;;39.27;24.73;;;;;;;0.64;82.25;96110.47;5006873;28;20193;-78
2023/03/04 09:01:27;;;;;;;45.73;26.80;;;;;;;0.76;82.53;96112.41;5023492;28;20190;-78
2023/03/04 09:03:53;;;;;;;49.30;27.50;;;;;;;0.72;81.66;96110.91;5007295;28;20182;-77
2023/03/04 09:06:18;;;;;;;45.30;26.73;;;;;;;0.75;82.30;96120.16;5029575;28;20782;-79
2023/03/04 09:08:44;;;;;;;51.57;28.00;;;;;;;0.81;80.90;96120.69;5032752;28;20658;-79
2023/03/04 09:11:10;;;;;;;50.73;27.47;;;;;;;0.94;80.20;96126.03;5023570;28;20275;-80
2023/03/04 09:13:35;;;;;;;46.07;26.77;;;;;;;0.97;80.38;96125.03;5030469;28;20187;-79
2023/03/04 09:16:04;;;;;;;54.30;26.97;;;;;;;1.11;80.76;96122.63;5029945;28;20581;-79
2023/03/04 09:18:30;;;;;;;49.97;28.30;;;;;;;0.90;78.89;96128.81;5013342;28;20192;-78
2023/03/04 09:20:55;;;;;;;47.97;28.13;;;;;;;0.80;79.89;96123.34;5022611;28;20563;-79
2023/03/04 09:23:21;;;;;;;55.53;29.17;;;;;;;0.93;77.56;96133.78;5018969;28;20195;-79
2023/03/04 09:25:48;;;;;;;49.57;27.23;;;;;;;0.90;77.69;96123.72;5025694;28;20199;-79
2023/03/04 09:28:14;;;;;;;45.83;27.03;;;;;;;0.81;78.66;96128.38;5013352;28;20277;-79
2023/03/04 09:30:39;;;;;;;47.63;27.70;;;;;;;0.84;79.22;96120.53;5013964;28;20187;-80
2023/03/04 09:33:04;;;;;;;48.07;26.63;;;;;;;0.67;79.83;96129.91;5001113;28;20289;-79
2023/03/04 09:35:30;;;;;;;51.23;29.77;;;;;;;0.99;79.51;96128.38;5016236;28;20323;-79
2023/03/04 09:37:56;;;;;;;48.67;27.53;;;;;;;1.17;79.35;96122.34;5021852;28;20194;-78
2023/03/04 09:40:24;;;;;;;48.73;27.43;;;;;;;1.16;79.06;96118.13;5011002;28;20668;-78
2023/03/04 09:43:02;;;;;;;49.83;27.87;;;;;;;1.37;77.86;96129.84;5024288;28;20187;-79
2023/03/04 09:45:36;;;;;;;52.23;28.43;;;;;;;1.30;77.32;96120.81;5011417;28;20213;-78
2023/03/04 09:48:01;;;;;;;49.10;28.53;;;;;;;1.40;77.13;96124.56;5024877;28;20182;-78
2023/03/04 09:50:30;;;;;;;46.53;27.67;;;;;;;1.51;76.97;96116.34;5029843;28;20196;-77
2023/03/04 09:53:27;;;;;;;51.30;29.20;;;;;;;1.39;75.41;96122.91;5011111;28;20183;-78
2023/03/04 09:55:52;;;;;;;58.63;34.77;;;;;;;1.57;75.65;96117.75;5022204;28;20709;-78
2023/03/04 09:58:38;;;;;;;52.37;33.10;;;;;;;1.81;75.21;96124.16;5011235;28;20190;-78
2023/03/04 10:01:22;;;;;;;53.20;30.17;;;;;;;1.73;73.64;96121.19;5036503;28;20182;-78
2023/03/04 10:04:13;;;;;;;54.30;31.33;;;;;;;1.71;73.69;96133.25;5032639;28;20187;-78
2023/03/04 10:06:39;;;;;;;48.10;28.90;;;;;;;1.51;74.49;96130.88;5023837;28;20199;-78
2023/03/04 10:09:13;;;;;;;51.60;30.23;;;;;;;1.51;74.50;96131.72;5003041;28;20670;-78
2023/03/04 10:11:45;;;;;;;49.70;29.87;;;;;;;1.67;73.34;96121.47;5024746;28;20699;-79
2023/03/04 10:14:25;;;;;;;51.83;29.60;;;;;;;1.53;74.35;96123.94;5022406;28;20191;-79
2023/03/04 10:16:55;;;;;;;50.83;30.53;;;;;;;1.80;73.46;96114.00;5029253;28;20874;-78
2023/03/04 10:19:27;;;;;;;53.03;31.37;;;;;;;1.76;73.51;96115.88;5007564;28;20179;-79
2023/03/04 10:21:52;;;;;;;51.33;30.47;;;;;;;1.62;73.37;96123.47;5016961;28;20221;-78
2023/03/04 10:24:21;;;;;;;52.27;30.40;;;;;;;1.61;73.51;96120.09;5001247;28;20278;-79
2023/03/04 10:26:55;;;;;;;52.93;30.40;;;;;;;1.63;72.56;96114.88;5019592;28;20186;-78
2023/03/04 10:29:23;;;;;;;56.70;30.70;;;;;;;1.61;72.08;96124.38;5011639;28;21021;-77
2023/03/04 10:31:49;;;;;;;54.23;30.70;;;;;;;1.50;72.22;96118.97;5005803;28;20190;-79
2023/03/04 10:34:15;;;;;;;55.50;31.57;;;;;;;1.72;73.40;96113.59;5029682;28;20174;-79
2023/03/04 10:36:50;;;;;;;50.03;30.10;;;;;;;1.87;72.52;96112.78;5031828;28;20199;-79
2023/03/04 10:39:23;;;;;;;44.63;28.93;;;;;;;1.91;70.28;96109.97;5028742;28;20186;-78
2023/03/04 10:41:55;;;;;;;46.33;28.03;;;;;;;2.03;69.98;96110.22;4999386;28;20186;-79
2023/03/04 10:44:21;;;;;;;49.67;29.23;;;;;;;2.09;70.34;96112.47;5019034;28;20297;-79
2023/03/04 10:46:48;;;;;;;49.50;28.73;;;;;;;2.28;70.89;96113.13;5039219;28;20187;-78
2023/03/04 10:49:16;;;;;;;49.57;28.60;;;;;;;2.24;70.16;96116.75;5029024;28;20269;-81
2023/03/04 10:51:44;;;;;;;45.50;27.57;;;;;;;2.21;70.28;96116.94;5014654;28;20628;-79
2023/03/04 10:54:21;;;;;;;49.83;29.47;;;;;;;2.28;69.80;96113.13;5030525;28;20265;-78
2023/03/04 10:57:03;;;;;;;48.03;27.00;;;;;;;2.40;69.93;96104.78;5014072;28;20182;-79
2023/03/04 10:59:30;;;;;;;47.50;27.33;;;;;;;2.26;69.36;96099.56;5015845;28;20202;-78
2023/03/04 11:01:55;;;;;;;55.63;28.03;;;;;;;2.13;69.43;96096.03;5016273;28;20595;-78
2023/03/04 11:04:25;;;;;;;47.47;29.63;;;;;;;2.30;70.18;96103.63;5009269;28;20285;-78
2023/03/04 11:06:51;;;;;;;44.17;27.57;;;;;;;2.46;69.33;96095.91;5025087;28;20200;-78
2023/03/04 11:09:30;;;;;;;49.97;27.40;;;;;;;2.25;68.88;96101.28;5025905;28;20195;-79
2023/03/04 11:11:59;;;;;;;48.43;28.07;;;;;;;2.11;69.65;96096.09;5002318;28;20230;-78
2023/03/04 11:14:28;;;;;;;55.87;31.00;;;;;;;2.25;69.33;96085.09;5025994;28;20211;-78
2023/03/04 11:16:56;;;;;;;53.13;28.73;;;;;;;2.31;69.41;96084.78;5015589;28;20210;-79